createdAt,value
2016-11-20T00:00:28.218Z,1.84
2016-11-20T00:01:41.976Z,1.84
2016-11-20T00:02:55.733Z,1.77
2016-11-20T00:04:09.434Z,1.8
2016-11-20T00:05:23.136Z,1.8
2016-11-20T00:06:36.890Z,1.87
2016-11-20T00:07:50.589Z,1.8
2016-11-20T00:09:04.291Z,1.8
2016-11-20T00:10:17.993Z,1.79
2016-11-20T00:11:31.700Z,1.74
2016-11-20T00:12:44.195Z,1.79
2016-11-20T00:13:57.921Z,1.79
2016-11-20T00:15:11.608Z,1.7
2016-11-20T00:16:24.258Z,1.74
2016-11-20T00:17:37.999Z,1.8
2016-11-20T00:18:51.704Z,1.79
2016-11-20T00:20:05.396Z,1.73
2016-11-20T00:21:17.864Z,1.67
2016-11-20T00:22:31.653Z,1.67
2016-11-20T00:23:45.379Z,1.69
2016-11-20T00:24:59.124Z,1.67
2016-11-20T00:26:12.836Z,1.58
2016-11-20T00:27:26.559Z,1.6
2016-11-20T00:28:40.242Z,1.54
2016-11-20T00:29:53.931Z,1.55
2016-11-20T00:31:07.631Z,1.47
2016-11-20T00:32:21.350Z,1.46
2016-11-20T00:33:35.038Z,1.5
2016-11-20T00:34:47.447Z,1.4
2016-11-20T00:36:01.127Z,1.33
2016-11-20T00:37:14.833Z,1.35
2016-11-20T00:38:28.537Z,1.2
2016-11-20T00:39:42.269Z,1.2
2016-11-20T00:40:55.967Z,1.21
2016-11-20T00:42:08.381Z,1.11
2016-11-20T00:43:22.080Z,1.15
2016-11-20T00:44:35.769Z,1.17
2016-11-20T00:45:49.446Z,1
2016-11-20T00:47:03.171Z,1.06
2016-11-20T00:48:15.583Z,1.06
2016-11-20T00:49:29.284Z,1.03
2016-11-20T00:50:41.724Z,1.03
2016-11-20T00:51:55.428Z,1.02
2016-11-20T00:53:09.127Z,0.99
2016-11-20T00:54:22.816Z,1
2016-11-20T00:55:36.515Z,0.88
2016-11-20T00:56:50.201Z,0.85
2016-11-20T00:58:03.902Z,0.88
2016-11-20T00:59:17.869Z,0.92
2016-11-20T01:00:31.550Z,0.82
2016-11-20T01:01:45.263Z,0.86
2016-11-20T01:02:58.992Z,0.76
2016-11-20T01:04:12.748Z,0.85
2016-11-20T01:05:26.465Z,0.68
2016-11-20T01:06:40.160Z,0.68
2016-11-20T01:07:53.866Z,0.76
2016-11-20T01:09:07.787Z,0.72
2016-11-20T01:10:20.206Z,0.75
2016-11-20T01:11:33.900Z,0.76
2016-11-20T01:12:47.659Z,0.72
2016-11-20T01:14:01.411Z,0.63
2016-11-20T01:15:15.151Z,0.6
2016-11-20T01:16:28.890Z,0.74
2016-11-20T01:17:42.654Z,0.71
2016-11-20T01:18:55.054Z,0.68
2016-11-20T01:20:08.747Z,0.71
2016-11-20T01:21:22.590Z,0.72
2016-11-20T01:22:36.527Z,0.67
2016-11-20T01:23:50.207Z,0.66
2016-11-20T01:25:03.904Z,0.64
2016-11-20T01:26:17.586Z,0.71
2016-11-20T01:27:31.263Z,0.75
2016-11-20T01:28:44.975Z,0.74
2016-11-20T01:29:58.652Z,0.74
2016-11-20T01:31:12.343Z,0.78
2016-11-20T01:32:26.060Z,0.81
2016-11-20T01:33:39.963Z,0.84
2016-11-20T01:34:53.690Z,0.85
2016-11-20T01:36:07.437Z,0.78
2016-11-20T01:37:19.831Z,0.85
2016-11-20T01:38:33.778Z,0.79
2016-11-20T01:39:47.460Z,0.78
2016-11-20T01:41:01.165Z,0.84
2016-11-20T01:42:13.792Z,0.82
2016-11-20T01:43:26.188Z,0.78
2016-11-20T01:44:39.878Z,0.85
2016-11-20T01:45:53.571Z,0.81
2016-11-20T01:47:07.297Z,0.81
2016-11-20T01:48:20.980Z,0.9
2016-11-20T01:49:34.748Z,0.92
2016-11-20T01:50:47.171Z,0.92
2016-11-20T01:52:00.864Z,0.9
2016-11-20T01:53:14.554Z,0.96
2016-11-20T01:54:28.231Z,0.85
2016-11-20T01:55:41.922Z,0.93
2016-11-20T01:56:55.657Z,0.86
2016-11-20T01:58:09.358Z,0.93
2016-11-20T01:59:23.053Z,0.85
2016-11-20T02:00:34.165Z,0.88
2016-11-20T02:01:47.871Z,0.85
2016-11-20T02:03:01.565Z,0.88
2016-11-20T02:04:13.960Z,0.9
2016-11-20T02:05:25.072Z,0.85
2016-11-20T02:06:38.764Z,0.85
2016-11-20T02:07:51.176Z,0.97
2016-11-20T02:09:03.600Z,0.84
2016-11-20T02:10:14.705Z,0.86
2016-11-20T02:11:28.436Z,0.93
2016-11-20T02:12:42.157Z,0.84
2016-11-20T02:13:55.867Z,0.9
2016-11-20T02:15:09.579Z,0.84
2016-11-20T02:16:21.973Z,0.82
2016-11-20T02:17:34.400Z,0.9
2016-11-20T02:18:48.096Z,0.97
2016-11-20T02:20:00.520Z,0.97
2016-11-20T02:21:14.199Z,1
2016-11-20T02:22:27.895Z,0.94
2016-11-20T02:23:41.620Z,1.04
2016-11-20T02:24:55.313Z,1.06
2016-11-20T02:26:09.010Z,0.99
2016-11-20T02:27:22.700Z,1.04
2016-11-20T02:28:36.394Z,1.12
2016-11-20T02:29:48.841Z,1.04
2016-11-20T02:31:02.557Z,1.15
2016-11-20T02:32:16.247Z,1.12
2016-11-20T02:33:29.948Z,1.04
2016-11-20T02:34:43.637Z,1.15
2016-11-20T02:35:56.073Z,1.02
2016-11-20T02:37:09.839Z,1.1
2016-11-20T02:38:23.586Z,1
2016-11-20T02:39:37.330Z,1.02
2016-11-20T02:40:51.143Z,1
2016-11-20T02:42:03.543Z,1
2016-11-20T02:43:15.961Z,1.06
2016-11-20T02:44:28.355Z,1.04
2016-11-20T02:46:11.750Z,1.06
2016-11-20T02:47:25.448Z,1.02
2016-11-20T02:48:39.142Z,0.99
2016-11-20T02:49:52.842Z,0.99
2016-11-20T02:51:05.282Z,1.02
2016-11-20T02:52:19.037Z,1.04
2016-11-20T02:53:30.152Z,1.06
2016-11-20T02:54:42.576Z,1.04
2016-11-20T02:55:56.259Z,1.08
2016-11-20T02:57:09.971Z,1.14
2016-11-20T02:58:23.656Z,1.11
2016-11-20T02:59:37.344Z,1.18
2016-11-20T03:00:51.053Z,1.14
2016-11-20T03:02:03.476Z,1.15
2016-11-20T03:03:17.242Z,1.18
2016-11-20T03:04:30.979Z,1.18
2016-11-20T03:05:43.375Z,1.17
2016-11-20T03:06:57.058Z,1.15
2016-11-20T03:08:10.794Z,1.15
2016-11-20T03:09:23.263Z,1.17
2016-11-20T03:10:36.952Z,1.2
2016-11-20T03:11:49.354Z,1.22
2016-11-20T03:13:03.056Z,1.17
2016-11-20T03:14:15.563Z,1.25
2016-11-20T03:15:29.253Z,1.2
2016-11-20T03:16:40.374Z,1.21
2016-11-20T03:17:54.116Z,1.17
2016-11-20T03:19:07.840Z,1.18
2016-11-20T03:20:20.252Z,1.2
2016-11-20T03:21:33.967Z,1.24
2016-11-20T03:22:46.382Z,1.24
2016-11-20T03:24:00.102Z,1.32
2016-11-20T03:25:13.783Z,1.33
2016-11-20T03:26:26.183Z,1.39
2016-11-20T03:27:40.172Z,1.43
2016-11-20T03:28:52.573Z,1.51
2016-11-20T03:30:05.069Z,1.55
2016-11-20T03:31:18.780Z,1.54
2016-11-20T03:32:32.480Z,1.57
2016-11-20T03:33:46.211Z,1.66
2016-11-20T03:34:58.605Z,1.72
2016-11-20T03:36:12.313Z,1.69
2016-11-20T03:37:26.019Z,1.77
2016-11-20T03:38:39.737Z,1.74
2016-11-20T03:39:52.159Z,1.72
2016-11-20T03:41:05.867Z,1.76
2016-11-20T03:42:18.272Z,1.76
2016-11-20T03:43:31.972Z,1.76
2016-11-20T03:44:45.662Z,1.73
2016-11-20T03:45:59.346Z,1.74
2016-11-20T03:47:13.053Z,1.73
2016-11-20T03:48:26.740Z,1.77
2016-11-20T03:49:40.559Z,1.73
2016-11-20T03:50:54.263Z,1.7
2016-11-20T03:52:08.004Z,1.73
2016-11-20T03:53:19.171Z,1.66
2016-11-20T03:54:31.554Z,1.7
2016-11-20T03:55:45.261Z,1.58
2016-11-20T03:56:58.959Z,1.67
2016-11-20T03:58:11.351Z,1.7
2016-11-20T03:59:25.086Z,1.72
2016-11-20T04:00:38.818Z,1.72
2016-11-20T04:01:52.522Z,1.57
2016-11-20T04:03:06.322Z,1.67
2016-11-20T04:04:18.725Z,1.66
2016-11-20T04:05:31.147Z,1.66
2016-11-20T04:06:44.826Z,1.74
2016-11-20T04:07:58.521Z,1.77
2016-11-20T04:09:10.912Z,1.72
2016-11-20T04:10:24.592Z,1.72
2016-11-20T04:11:38.325Z,1.76
2016-11-20T04:12:52.013Z,1.7
2016-11-20T04:14:05.696Z,1.76
2016-11-20T04:15:19.414Z,1.73
2016-11-20T04:16:31.805Z,1.7
2016-11-20T04:17:45.543Z,1.76
2016-11-20T04:18:59.222Z,1.72
2016-11-20T04:20:13.125Z,1.85
2016-11-20T04:21:27.078Z,1.82
2016-11-20T04:22:39.482Z,1.82
2016-11-20T04:23:51.989Z,1.82
2016-11-20T04:25:04.393Z,1.8
2016-11-20T04:26:18.122Z,1.85
2016-11-20T04:27:30.542Z,1.88
2016-11-20T04:28:44.303Z,1.79
2016-11-20T04:29:57.985Z,1.82
2016-11-20T04:31:10.406Z,1.85
2016-11-20T04:32:22.805Z,1.9
2016-11-20T04:33:35.220Z,1.88
2016-11-20T04:34:48.909Z,1.9
2016-11-20T04:36:02.669Z,1.97
2016-11-20T04:37:16.368Z,1.95
2016-11-20T04:38:30.049Z,2.01
2016-11-20T04:39:43.752Z,2.06
2016-11-20T04:40:57.452Z,2.06
2016-11-20T04:42:11.173Z,2.1
2016-11-20T04:43:23.634Z,2.1
2016-11-20T04:44:37.344Z,2.12
2016-11-20T04:45:51.085Z,2.13
2016-11-20T04:47:04.797Z,2.08
2016-11-20T04:48:18.479Z,2.1
2016-11-20T04:49:30.890Z,2.13
2016-11-20T04:50:44.813Z,2.15
2016-11-20T04:51:58.499Z,2.15
2016-11-20T04:53:12.197Z,2.15
2016-11-20T04:54:26.147Z,2.12
2016-11-20T04:55:40.081Z,2.13
2016-11-20T04:56:53.757Z,2.1
2016-11-20T04:58:07.446Z,2.08
2016-11-20T04:59:21.140Z,2.06
2016-11-20T05:00:34.822Z,2.06
2016-11-20T05:01:48.527Z,2.1
2016-11-20T05:03:00.974Z,2.08
2016-11-20T05:04:14.739Z,2.06
2016-11-20T05:05:28.458Z,1.94
2016-11-20T05:06:42.153Z,1.97
2016-11-20T05:07:55.863Z,2.01
2016-11-20T05:09:09.604Z,1.95
2016-11-20T05:10:23.320Z,2
2016-11-20T05:11:37.006Z,1.98
2016-11-20T05:12:50.705Z,1.97
2016-11-20T05:14:04.392Z,1.95
2016-11-20T05:15:18.071Z,1.98
2016-11-20T05:16:31.762Z,1.95
2016-11-20T05:17:45.447Z,2
2016-11-20T05:18:59.156Z,2.05
2016-11-20T05:20:12.860Z,1.94
2016-11-20T05:21:26.558Z,2
2016-11-20T05:23:11.171Z,2.01
2016-11-20T05:24:24.862Z,1.92
2016-11-20T05:25:37.275Z,1.9
2016-11-20T05:26:51.005Z,1.92
2016-11-20T05:28:03.571Z,1.98
2016-11-20T05:29:17.268Z,1.92
2016-11-20T05:30:29.690Z,1.87
2016-11-20T05:31:43.636Z,1.97
2016-11-20T05:32:56.048Z,1.95
2016-11-20T05:34:09.757Z,1.88
2016-11-20T05:35:20.864Z,1.92
2016-11-20T05:36:34.571Z,1.98
2016-11-20T05:37:48.285Z,1.84
2016-11-20T05:39:01.997Z,1.9
2016-11-20T05:40:15.682Z,1.85
2016-11-20T05:41:29.395Z,1.85
2016-11-20T05:42:41.815Z,1.84
2016-11-20T05:43:55.531Z,1.88
2016-11-20T05:45:09.262Z,1.87
2016-11-20T05:46:22.960Z,1.88
2016-11-20T05:47:36.752Z,1.88
2016-11-20T05:48:50.473Z,1.79
2016-11-20T05:50:04.161Z,1.91
2016-11-20T05:51:17.851Z,1.82
2016-11-20T05:52:31.557Z,1.82
2016-11-20T05:53:45.246Z,1.94
2016-11-20T05:54:58.922Z,1.98
2016-11-20T05:56:12.612Z,1.9
2016-11-20T05:57:26.291Z,1.94
2016-11-20T05:58:39.988Z,1.98
2016-11-20T05:59:53.719Z,2.05
2016-11-20T06:01:07.497Z,1.94
2016-11-20T06:02:21.198Z,2
2016-11-20T06:03:34.901Z,2
2016-11-20T06:04:47.391Z,2.05
2016-11-20T06:06:01.087Z,2.03
2016-11-20T06:07:14.782Z,2.05
2016-11-20T06:08:28.701Z,2.12
2016-11-20T06:09:42.470Z,2.09
2016-11-20T06:10:54.882Z,2.13
2016-11-20T06:12:08.594Z,2.12
2016-11-20T06:13:22.555Z,2.08
2016-11-20T06:14:36.254Z,2.1
2016-11-20T06:15:49.933Z,2.1
2016-11-20T06:17:03.621Z,2.16
2016-11-20T06:18:17.328Z,2.21
2016-11-20T06:19:31.009Z,2.16
2016-11-20T06:20:44.714Z,2.23
2016-11-20T06:21:57.114Z,2.27
2016-11-20T06:23:11.061Z,2.15
2016-11-20T06:24:23.485Z,2.23
2016-11-20T06:25:37.474Z,2.19
2016-11-20T06:26:51.168Z,2.16
2016-11-20T06:28:04.866Z,2.16
2016-11-20T06:29:18.558Z,2.13
2016-11-20T06:30:32.264Z,2.18
2016-11-20T06:31:45.959Z,2.18
2016-11-20T06:32:59.681Z,2.24
2016-11-20T06:34:12.089Z,2.16
2016-11-20T06:35:25.837Z,2.23
2016-11-20T06:36:39.536Z,2.21
2016-11-20T06:37:53.274Z,2.21
2016-11-20T06:39:06.956Z,2.24
2016-11-20T06:40:19.404Z,2.26
2016-11-20T06:41:33.263Z,2.28
2016-11-20T06:42:45.884Z,2.3
2016-11-20T06:43:59.576Z,2.27
2016-11-20T06:45:13.297Z,2.28
2016-11-20T06:46:25.693Z,2.33
2016-11-20T06:47:39.377Z,2.3
2016-11-20T06:48:53.103Z,2.36
2016-11-20T06:50:06.803Z,2.33
2016-11-20T06:51:20.517Z,2.34
2016-11-20T06:52:34.216Z,2.34
2016-11-20T06:53:47.903Z,2.37
2016-11-20T06:55:00.295Z,2.37
2016-11-20T06:56:14.053Z,2.26
2016-11-20T06:57:27.744Z,2.37
2016-11-20T06:58:41.442Z,2.42
2016-11-20T06:59:55.198Z,2.26
2016-11-20T07:01:08.892Z,2.28
2016-11-20T07:02:22.579Z,2.31
2016-11-20T07:03:36.277Z,2.41
2016-11-20T07:04:50.003Z,2.37
2016-11-20T07:06:03.710Z,2.41
2016-11-20T07:07:17.616Z,2.34
2016-11-20T07:08:31.312Z,2.42
2016-11-20T07:09:43.708Z,2.34
2016-11-20T07:10:57.398Z,2.42
2016-11-20T07:12:09.908Z,2.45
2016-11-20T07:13:22.302Z,2.41
2016-11-20T07:14:35.986Z,2.45
2016-11-20T07:15:49.681Z,2.48
2016-11-20T07:17:03.360Z,2.44
2016-11-20T07:18:17.060Z,2.34
2016-11-20T07:19:30.749Z,2.36
2016-11-20T07:20:43.161Z,2.34
2016-11-20T07:21:56.967Z,2.41
2016-11-20T07:23:10.685Z,2.26
2016-11-20T07:24:24.377Z,2.31
2016-11-20T07:25:38.081Z,2.3
2016-11-20T07:26:51.773Z,2.45
2016-11-20T07:28:05.496Z,2.39
2016-11-20T07:29:17.907Z,2.51
2016-11-20T07:30:31.599Z,2.44
2016-11-20T07:31:45.428Z,2.49
2016-11-20T07:32:59.170Z,2.51
2016-11-20T07:34:12.876Z,2.56
2016-11-20T07:35:26.580Z,2.55
2016-11-20T07:36:40.288Z,2.64
2016-11-20T07:37:53.980Z,2.66
2016-11-20T07:39:05.250Z,2.71
2016-11-20T07:40:18.938Z,2.69
2016-11-20T07:41:32.676Z,2.71
2016-11-20T07:42:46.363Z,2.73
2016-11-20T07:43:58.867Z,2.74
2016-11-20T07:45:11.269Z,2.71
2016-11-20T07:46:24.967Z,2.84
2016-11-20T07:47:38.661Z,2.82
2016-11-20T07:48:51.086Z,2.85
2016-11-20T07:50:04.769Z,2.81
2016-11-20T07:51:18.501Z,2.82
2016-11-20T07:52:32.192Z,2.84
2016-11-20T07:53:45.881Z,2.88
2016-11-20T07:54:59.586Z,2.88
2016-11-20T07:56:13.293Z,2.91
2016-11-20T07:57:27.004Z,2.85
2016-11-20T07:58:40.703Z,2.85
2016-11-20T07:59:54.385Z,2.97
2016-11-20T08:01:06.823Z,2.92
2016-11-20T08:02:20.695Z,2.96
2016-11-20T08:03:34.404Z,3.02
2016-11-20T08:04:48.098Z,3.06
2016-11-20T08:06:00.564Z,3.08
2016-11-20T08:07:14.392Z,3.07
2016-11-20T08:08:26.831Z,3.22
2016-11-20T08:09:40.500Z,3.22
2016-11-20T08:10:52.914Z,3.25
2016-11-20T08:12:06.690Z,3.5
2016-11-20T08:13:19.099Z,3.54
2016-11-20T08:14:32.791Z,3.75
2016-11-20T08:15:46.522Z,3.8
2016-11-20T08:17:00.217Z,4.01
2016-11-20T08:18:13.907Z,4.03
2016-11-20T08:19:27.839Z,4.18
2016-11-20T08:20:41.535Z,4.15
2016-11-20T08:21:55.232Z,4.23
2016-11-20T08:23:08.976Z,4.23
2016-11-20T08:24:21.506Z,4.11
2016-11-20T08:25:35.211Z,4.25
2016-11-20T08:26:48.924Z,4.27
2016-11-20T08:28:02.659Z,4.49
2016-11-20T08:29:16.411Z,4.55
2016-11-20T08:30:30.114Z,4.4
2016-11-20T08:31:43.848Z,4.38
2016-11-20T08:32:57.543Z,4.19
2016-11-20T08:34:11.250Z,4.2
2016-11-20T08:35:24.963Z,4.11
2016-11-20T08:36:37.616Z,4.57
2016-11-20T08:37:51.317Z,4.89
2016-11-20T08:39:05.041Z,5.29
2016-11-20T08:40:18.855Z,5.41
2016-11-20T08:41:32.651Z,5.46
2016-11-20T08:42:46.384Z,6.39
2016-11-20T08:43:58.805Z,8.16
2016-11-20T08:45:14.084Z,9.34
2016-11-20T08:46:27.813Z,9.25
2016-11-20T08:47:41.520Z,8.89
2016-11-20T08:48:55.224Z,8.64
2016-11-20T08:50:07.670Z,8.5
2016-11-20T08:51:52.253Z,7.61
2016-11-20T08:53:06.000Z,7.02
2016-11-20T08:54:18.444Z,6.12
2016-11-20T08:55:32.172Z,5.82
2016-11-20T08:56:45.889Z,5.56
2016-11-20T08:57:59.743Z,5.43
2016-11-20T08:59:13.452Z,5.59
2016-11-20T09:00:27.232Z,5.75
2016-11-20T09:01:40.964Z,5.96
2016-11-20T09:02:54.689Z,6.3
2016-11-20T09:04:08.424Z,6.57
2016-11-20T09:05:22.149Z,6.46
2016-11-20T09:06:35.870Z,6.39
2016-11-20T09:07:49.698Z,6.27
2016-11-20T09:09:03.399Z,6.28
2016-11-20T09:10:15.827Z,6.27
2016-11-20T09:11:29.778Z,6.44
2016-11-20T09:12:45.029Z,7.79
2016-11-20T09:14:00.320Z,9.34
2016-11-20T09:15:14.239Z,9.34
2016-11-20T09:16:26.677Z,10.34
2016-11-20T09:17:40.640Z,10.69
2016-11-20T09:18:54.345Z,10.34
2016-11-20T09:20:06.765Z,9.75
2016-11-20T09:21:20.583Z,8.79
2016-11-20T09:22:34.285Z,7.92
2016-11-20T09:23:48.003Z,7.58
2016-11-20T09:25:01.725Z,7.15
2016-11-20T09:26:14.142Z,6.82
2016-11-20T09:27:27.836Z,6.6
2016-11-20T09:28:41.528Z,6.39
2016-11-20T09:29:55.236Z,6.35
2016-11-20T09:31:08.933Z,6.27
2016-11-20T09:32:22.862Z,6.21
2016-11-20T09:33:36.552Z,6.14
2016-11-20T09:34:50.258Z,6.11
2016-11-20T09:36:03.973Z,6.02
2016-11-20T09:37:17.700Z,6.06
2016-11-20T09:38:31.474Z,6.06
2016-11-20T09:39:45.802Z,6.05
2016-11-20T09:40:59.829Z,6.45
2016-11-20T09:42:13.566Z,6.97
2016-11-20T09:43:26.224Z,7.95
2016-11-20T09:44:39.947Z,8.31
2016-11-20T09:45:52.359Z,8.35
2016-11-20T09:47:06.100Z,8.57
2016-11-20T09:48:19.838Z,8.52
2016-11-20T09:49:33.546Z,9.5
2016-11-20T09:50:47.290Z,10.48
2016-11-20T09:52:00.998Z,10.42
2016-11-20T09:53:13.424Z,10.72
2016-11-20T09:54:26.103Z,10.39
2016-11-20T09:55:39.908Z,10.37
2016-11-20T09:56:53.659Z,9.93
2016-11-20T09:58:07.373Z,9.48
2016-11-20T09:59:21.090Z,8.97
2016-11-20T10:00:34.796Z,8.57
2016-11-20T10:01:48.510Z,8.12
2016-11-20T10:03:02.213Z,7.54
2016-11-20T10:04:16.197Z,7
2016-11-20T10:05:29.935Z,6.63
2016-11-20T10:06:43.633Z,6.42
2016-11-20T10:07:57.349Z,6.28
2016-11-20T10:09:11.099Z,6.01
2016-11-20T10:10:24.847Z,5.86
2016-11-20T10:11:38.538Z,5.84
2016-11-20T10:12:52.360Z,5.72
2016-11-20T10:14:06.071Z,5.64
2016-11-20T10:15:18.492Z,5.54
2016-11-20T10:16:30.978Z,5.56
2016-11-20T10:17:44.925Z,5.49
2016-11-20T10:18:58.669Z,5.44
2016-11-20T10:20:12.490Z,5.31
2016-11-20T10:21:26.200Z,5.18
2016-11-20T10:22:39.909Z,5.24
2016-11-20T10:23:53.652Z,5.17
2016-11-20T10:25:07.379Z,5.14
2016-11-20T10:26:21.090Z,5
2016-11-20T10:27:33.569Z,5
2016-11-20T10:28:47.275Z,4.95
2016-11-20T10:30:01.054Z,4.95
2016-11-20T10:31:14.801Z,4.96
2016-11-20T10:32:28.503Z,4.92
2016-11-20T10:33:42.230Z,4.8
2016-11-20T10:34:55.937Z,4.93
2016-11-20T10:36:09.632Z,4.95
2016-11-20T10:37:22.044Z,4.92
2016-11-20T10:38:35.793Z,4.96
2016-11-20T10:39:48.215Z,4.92
2016-11-20T10:41:01.924Z,4.99
2016-11-20T10:42:15.633Z,4.96
2016-11-20T10:43:29.557Z,4.93
2016-11-20T10:44:43.267Z,4.96
2016-11-20T10:45:57.010Z,5.03
2016-11-20T10:47:10.704Z,4.99
2016-11-20T10:48:24.428Z,5.03
2016-11-20T10:49:38.165Z,5.08
2016-11-20T10:50:51.861Z,5.04
2016-11-20T10:52:05.569Z,5.11
2016-11-20T10:53:19.274Z,5.03
2016-11-20T10:54:32.975Z,5.14
2016-11-20T10:55:46.919Z,5.18
2016-11-20T10:57:00.653Z,5.16
2016-11-20T10:58:14.365Z,5.22
2016-11-20T10:59:28.119Z,5.17
2016-11-20T11:00:41.825Z,5.21
2016-11-20T11:01:55.767Z,5.28
2016-11-20T11:03:09.613Z,5.26
2016-11-20T11:04:23.323Z,5.18
2016-11-20T11:05:37.064Z,5.25
2016-11-20T11:06:50.791Z,5.29
2016-11-20T11:08:04.505Z,5.29
2016-11-20T11:09:18.264Z,5.35
2016-11-20T11:10:31.955Z,5.38
2016-11-20T11:11:45.821Z,5.41
2016-11-20T11:12:59.577Z,5.49
2016-11-20T11:14:13.322Z,5.58
2016-11-20T11:15:27.072Z,5.58
2016-11-20T11:16:40.859Z,5.59
2016-11-20T11:17:54.699Z,5.56
2016-11-20T11:19:08.477Z,5.54
2016-11-20T11:20:22.187Z,5.58
2016-11-20T11:21:35.931Z,5.64
2016-11-20T11:22:47.073Z,5.62
2016-11-20T11:24:00.787Z,5.64
2016-11-20T11:25:14.537Z,5.71
2016-11-20T11:26:28.240Z,5.68
2016-11-20T11:27:41.948Z,5.69
2016-11-20T11:28:55.669Z,5.72
2016-11-20T11:30:09.666Z,5.74
2016-11-20T11:31:23.380Z,5.82
2016-11-20T11:32:37.108Z,5.88
2016-11-20T11:33:50.862Z,5.91
2016-11-20T11:35:04.657Z,5.84
2016-11-20T11:36:18.510Z,6.01
2016-11-20T11:37:32.242Z,5.98
2016-11-20T11:38:46.008Z,5.99
2016-11-20T11:39:59.729Z,6.06
2016-11-20T11:41:13.608Z,6.08
2016-11-20T11:42:27.400Z,6.17
2016-11-20T11:43:39.867Z,6.12
2016-11-20T11:44:52.507Z,6.17
2016-11-20T11:46:06.441Z,6.21
2016-11-20T11:47:20.242Z,6.28
2016-11-20T11:48:32.683Z,6.3
2016-11-20T11:49:46.517Z,6.31
2016-11-20T11:51:00.522Z,6.3
2016-11-20T11:52:14.426Z,6.34
2016-11-20T11:53:28.145Z,6.3
2016-11-20T11:54:41.856Z,6.28
2016-11-20T11:55:55.604Z,6.34
2016-11-20T11:57:09.377Z,6.38
2016-11-20T11:58:23.229Z,6.46
2016-11-20T11:59:37.171Z,6.53
2016-11-20T12:00:51.198Z,6.54
2016-11-20T12:02:03.840Z,6.57
2016-11-20T12:03:17.634Z,6.74
2016-11-20T12:04:31.727Z,6.85
2016-11-20T12:05:45.473Z,6.87
2016-11-20T12:06:59.224Z,6.93
2016-11-20T12:08:13.166Z,6.99
2016-11-20T12:09:26.940Z,7.06
2016-11-20T12:10:39.683Z,7.11
2016-11-20T12:11:53.454Z,7.18
2016-11-20T12:13:06.032Z,7.2
2016-11-20T12:14:19.768Z,7.18
2016-11-20T12:15:33.534Z,7.21
2016-11-20T12:16:47.538Z,7.2
2016-11-20T12:18:01.273Z,7.31
2016-11-20T12:19:15.010Z,7.21
2016-11-20T12:20:28.798Z,7.29
2016-11-20T12:21:41.244Z,7.34
2016-11-20T12:22:54.968Z,7.39
2016-11-20T12:24:08.701Z,7.43
2016-11-20T12:25:22.462Z,7.37
2016-11-20T12:26:36.211Z,7.41
2016-11-20T12:27:50.220Z,7.41
2016-11-20T12:29:04.026Z,7.34
2016-11-20T12:30:17.771Z,7.26
2016-11-20T12:31:30.212Z,7.44
2016-11-20T12:32:44.013Z,7.59
2016-11-20T12:33:57.962Z,7.72
2016-11-20T12:35:11.730Z,7.72
2016-11-20T12:36:25.474Z,7.97
2016-11-20T12:37:39.209Z,7.98
2016-11-20T12:38:52.949Z,7.99
2016-11-20T12:40:06.727Z,8.3
2016-11-20T12:41:20.484Z,8.61
2016-11-20T12:42:34.336Z,9.01
2016-11-20T12:43:48.118Z,9.25
2016-11-20T12:45:01.855Z,9.71
2016-11-20T12:46:15.645Z,9.92
2016-11-20T12:47:29.437Z,9.84
2016-11-20T12:48:43.303Z,9.63
2016-11-20T12:49:57.102Z,9.52
2016-11-20T12:51:10.874Z,9.23
2016-11-20T12:52:24.909Z,8.9
2016-11-20T12:53:36.163Z,8.75
2016-11-20T12:54:49.896Z,8.74
2016-11-20T12:56:03.646Z,8.67
2016-11-20T12:57:17.565Z,8.58
2016-11-20T12:58:31.428Z,8.61
2016-11-20T12:59:45.197Z,8.49
2016-11-20T13:00:58.999Z,8.55
2016-11-20T13:02:12.796Z,8.45
2016-11-20T13:03:26.564Z,8.39
2016-11-20T13:04:39.069Z,8.3
2016-11-20T13:05:52.868Z,8.25
2016-11-20T13:07:06.609Z,8.17
2016-11-20T13:08:20.327Z,8.16
2016-11-20T13:09:34.115Z,8.17
2016-11-20T13:10:48.125Z,8.1
2016-11-20T13:12:01.948Z,8.05
2016-11-20T13:13:15.920Z,7.87
2016-11-20T13:14:29.621Z,7.84
2016-11-20T13:15:43.374Z,7.87
2016-11-20T13:16:57.109Z,7.72
2016-11-20T13:18:10.903Z,7.76
2016-11-20T13:19:24.881Z,7.74
2016-11-20T13:20:38.856Z,7.8
2016-11-20T13:21:52.641Z,7.79
2016-11-20T13:23:06.430Z,7.91
2016-11-20T13:24:20.156Z,8.07
2016-11-20T13:25:31.307Z,7.9
2016-11-20T13:26:45.051Z,7.8
2016-11-20T13:27:58.771Z,7.77
2016-11-20T13:29:12.487Z,7.72
2016-11-20T13:30:26.223Z,7.72
2016-11-20T13:31:39.985Z,7.73
2016-11-20T13:32:53.855Z,7.77
2016-11-20T13:34:07.606Z,7.77
2016-11-20T13:35:21.340Z,7.76
2016-11-20T13:36:35.071Z,7.8
2016-11-20T13:37:47.505Z,7.8
2016-11-20T13:39:01.279Z,7.79
2016-11-20T13:40:15.048Z,7.74
2016-11-20T13:41:28.811Z,7.76
2016-11-20T13:42:42.593Z,7.87
2016-11-20T13:43:56.330Z,7.84
2016-11-20T13:45:06.215Z,7.91
2016-11-20T13:46:19.989Z,7.99
2016-11-20T13:47:33.805Z,8.12
2016-11-20T13:48:47.530Z,8.15
2016-11-20T13:50:01.259Z,8.15
2016-11-20T13:51:13.771Z,8.12
2016-11-20T13:52:27.531Z,8.09
2016-11-20T13:53:41.264Z,7.99
2016-11-20T13:54:55.139Z,8.16
2016-11-20T13:56:08.993Z,8.12
2016-11-20T13:57:22.732Z,8.12
2016-11-20T13:58:35.179Z,8.16
2016-11-20T13:59:48.972Z,8.23
2016-11-20T14:01:02.748Z,8.23
2016-11-20T14:02:16.484Z,8.28
2016-11-20T14:03:30.236Z,8.25
2016-11-20T14:04:44.123Z,8.3
2016-11-20T14:05:57.893Z,8.3
2016-11-20T14:07:11.667Z,8.37
2016-11-20T14:08:24.116Z,8.28
2016-11-20T14:09:37.930Z,8.31
2016-11-20T14:10:51.670Z,8.28
2016-11-20T14:12:05.410Z,8.31
2016-11-20T14:13:19.144Z,8.09
2016-11-20T14:14:32.883Z,8.17
2016-11-20T14:15:46.649Z,8.16
2016-11-20T14:17:00.439Z,8.15
2016-11-20T14:18:14.222Z,8.12
2016-11-20T14:19:27.983Z,8.21
2016-11-20T14:20:41.703Z,8.16
2016-11-20T14:21:55.427Z,8.2
2016-11-20T14:23:09.170Z,8.12
2016-11-20T14:24:22.922Z,8.21
2016-11-20T14:25:36.814Z,8.17
2016-11-20T14:26:50.549Z,8.16
2016-11-20T14:28:04.309Z,8.13
2016-11-20T14:29:18.061Z,8.1
2016-11-20T14:30:31.817Z,7.98
2016-11-20T14:31:45.678Z,8.09
2016-11-20T14:32:59.507Z,8.1
2016-11-20T14:34:13.306Z,8.16
2016-11-20T14:35:27.084Z,8.21
2016-11-20T14:36:40.843Z,8.23
2016-11-20T14:37:54.613Z,8.16
2016-11-20T14:39:08.381Z,8.24
2016-11-20T14:40:22.115Z,8.4
2016-11-20T14:41:35.837Z,8.42
2016-11-20T14:42:49.566Z,8.4
2016-11-20T14:44:03.325Z,8.42
2016-11-20T14:45:15.784Z,8.37
2016-11-20T14:46:29.538Z,8.4
2016-11-20T14:47:43.246Z,8.55
2016-11-20T14:48:56.968Z,8.49
2016-11-20T14:50:10.700Z,8.6
2016-11-20T14:51:23.126Z,8.55
2016-11-20T14:52:36.899Z,8.61
2016-11-20T14:53:50.644Z,8.71
2016-11-20T14:55:04.380Z,8.77
2016-11-20T14:56:18.115Z,8.79
2016-11-20T14:57:31.891Z,8.87
2016-11-20T14:58:45.708Z,8.9
2016-11-20T14:59:59.494Z,8.89
2016-11-20T15:01:13.253Z,8.95
2016-11-20T15:02:26.982Z,8.92
2016-11-20T15:03:40.743Z,8.95
2016-11-20T15:04:54.542Z,9
2016-11-20T15:06:08.312Z,9.04
2016-11-20T15:07:22.117Z,9.19
2016-11-20T15:08:35.837Z,9.15
2016-11-20T15:09:48.339Z,9.2
2016-11-20T15:11:02.080Z,9.08
2016-11-20T15:12:15.836Z,9.11
2016-11-20T15:13:29.568Z,9.11
2016-11-20T15:14:43.581Z,9.11
2016-11-20T15:15:57.339Z,9.15
2016-11-20T15:17:11.066Z,9.12
2016-11-20T15:18:24.795Z,9.19
2016-11-20T15:19:38.555Z,9.09
2016-11-20T15:20:52.321Z,9.15
2016-11-20T15:22:06.120Z,9.11
2016-11-20T15:23:19.974Z,9.19
2016-11-20T15:24:33.714Z,9.22
2016-11-20T15:25:47.499Z,9.22
2016-11-20T15:27:01.262Z,9.12
2016-11-20T15:28:15.019Z,9.17
2016-11-20T15:29:28.841Z,9.12
2016-11-20T15:30:42.614Z,9.09
2016-11-20T15:31:55.067Z,9.15
2016-11-20T15:33:08.888Z,9.15
2016-11-20T15:34:22.634Z,9.11
2016-11-20T15:35:36.421Z,9.11
2016-11-20T15:36:47.713Z,9.04
2016-11-20T15:38:01.553Z,9.15
2016-11-20T15:39:15.344Z,9.07
2016-11-20T15:40:29.072Z,9.04
2016-11-20T15:41:42.888Z,8.98
2016-11-20T15:42:56.644Z,9.04
2016-11-20T15:44:10.511Z,9.01
2016-11-20T15:45:24.368Z,8.98
2016-11-20T15:46:38.149Z,9.04
2016-11-20T15:47:52.004Z,9.01
2016-11-20T15:49:05.758Z,9.15
2016-11-20T15:50:19.579Z,9.26
2016-11-20T15:51:33.382Z,9.27
2016-11-20T15:52:47.170Z,9.23
2016-11-20T15:54:01.166Z,9.2
2016-11-20T15:55:13.683Z,9.23
2016-11-20T15:56:27.474Z,9.19
2016-11-20T15:57:41.245Z,9.11
2016-11-20T15:58:54.988Z,9.09
2016-11-20T16:00:08.765Z,9.09
2016-11-20T16:01:22.569Z,9.11
2016-11-20T16:02:36.351Z,9.08
2016-11-20T16:03:50.112Z,9.12
2016-11-20T16:05:03.998Z,9.01
2016-11-20T16:06:17.775Z,9.09
2016-11-20T16:07:30.270Z,9.12
2016-11-20T16:08:44.145Z,9.09
2016-11-20T16:09:57.945Z,9.02
2016-11-20T16:11:11.746Z,9.04
2016-11-20T16:12:25.518Z,9.12
2016-11-20T16:13:39.442Z,9.15
2016-11-20T16:14:53.241Z,9.19
2016-11-20T16:16:05.732Z,9.11
2016-11-20T16:17:19.565Z,9.15
2016-11-20T16:18:33.727Z,9.12
2016-11-20T16:19:47.611Z,9.16
2016-11-20T16:21:01.443Z,9.12
2016-11-20T16:22:15.247Z,9.16
2016-11-20T16:23:29.036Z,9.09
2016-11-20T16:24:42.833Z,9.11